sensor_id;sensor_type;location;lat;lon;timestamp;P1;durP1;ratioP1;P2;durP2;ratioP2
59074;SDS011;44860;53.020;6.738;2023-06-26T00:02:12;11.07;;;8.48;;
59074;SDS011;44860;53.020;6.738;2023-06-26T00:04:38;8.90;;;8.00;;
59074;SDS011;44860;53.020;6.738;2023-06-26T00:07:04;9.15;;;8.23;;
59074;SDS011;44860;53.020;6.738;2023-06-26T00:09:30;9.48;;;8.48;;
59074;SDS011;44860;53.020;6.738;2023-06-26T00:11:56;9.77;;;8.50;;
59074;SDS011;44860;53.020;6.738;2023-06-26T00:14:21;9.65;;;8.50;;
59074;SDS011;44860;53.020;6.738;2023-06-26T00:16:47;9.40;;;8.50;;
59074;SDS011;44860;53.020;6.738;2023-06-26T00:19:16;10.25;;;8.88;;
59074;SDS011;44860;53.020;6.738;2023-06-26T00:21:41;9.80;;;8.82;;
59074;SDS011;44860;53.020;6.738;2023-06-26T00:24:11;10.70;;;9.05;;
59074;SDS011;44860;53.020;6.738;2023-06-26T00:26:38;9.48;;;8.48;;
59074;SDS011;44860;53.020;6.738;2023-06-26T00:29:03;9.60;;;8.60;;
59074;SDS011;44860;53.020;6.738;2023-06-26T00:31:29;9.20;;;8.30;;
59074;SDS011;44860;53.020;6.738;2023-06-26T00:33:55;9.70;;;8.70;;
59074;SDS011;44860;53.020;6.738;2023-06-26T00:36:21;9.73;;;8.70;;
59074;SDS011;44860;53.020;6.738;2023-06-26T00:38:51;9.05;;;8.15;;
59074;SDS011;44860;53.020;6.738;2023-06-26T00:41:17;9.65;;;8.20;;
59074;SDS011;44860;53.020;6.738;2023-06-26T00:43:44;9.50;;;8.63;;
59074;SDS011;44860;53.020;6.738;2023-06-26T00:46:11;9.60;;;8.70;;
59074;SDS011;44860;53.020;6.738;2023-06-26T00:48:38;11.63;;;8.77;;
59074;SDS011;44860;53.020;6.738;2023-06-26T00:51:05;9.50;;;8.50;;
59074;SDS011;44860;53.020;6.738;2023-06-26T00:53:32;9.50;;;8.50;;
59074;SDS011;44860;53.020;6.738;2023-06-26T00:55:58;10.35;;;8.43;;
59074;SDS011;44860;53.020;6.738;2023-06-26T00:58:25;9.43;;;8.48;;
59074;SDS011;44860;53.020;6.738;2023-06-26T01:00:51;9.20;;;8.30;;
59074;SDS011;44860;53.020;6.738;2023-06-26T01:03:18;12.15;;;8.95;;
59074;SDS011;44860;53.020;6.738;2023-06-26T01:05:44;9.73;;;8.55;;
59074;SDS011;44860;53.020;6.738;2023-06-26T01:08:15;11.40;;;9.07;;
59074;SDS011;44860;53.020;6.738;2023-06-26T01:10:41;10.07;;;9.13;;
59074;SDS011;44860;53.020;6.738;2023-06-26T01:13:07;9.45;;;8.55;;
59074;SDS011;44860;53.020;6.738;2023-06-26T01:15:33;10.27;;;8.43;;
59074;SDS011;44860;53.020;6.738;2023-06-26T01:18:00;9.77;;;8.77;;
59074;SDS011;44860;53.020;6.738;2023-06-26T01:20:32;9.85;;;8.77;;
59074;SDS011;44860;53.020;6.738;2023-06-26T01:23:07;9.40;;;8.50;;
59074;SDS011;44860;53.020;6.738;2023-06-26T01:26:19;9.65;;;8.70;;
59074;SDS011;44860;53.020;6.738;2023-06-26T01:28:46;10.00;;;9.00;;
59074;SDS011;44860;53.020;6.738;2023-06-26T01:31:13;11.95;;;8.93;;
59074;SDS011;44860;53.020;6.738;2023-06-26T01:33:40;9.82;;;8.93;;
59074;SDS011;44860;53.020;6.738;2023-06-26T01:36:06;10.65;;;9.23;;
59074;SDS011;44860;53.020;6.738;2023-06-26T01:38:32;10.25;;;9.00;;
59074;SDS011;44860;53.020;6.738;2023-06-26T01:40:59;10.65;;;9.57;;
59074;SDS011;44860;53.020;6.738;2023-06-26T01:52:12;10.75;;;9.68;;
59074;SDS011;44860;53.020;6.738;2023-06-26T01:54:49;10.95;;;9.93;;
59074;SDS011;44860;53.020;6.738;2023-06-26T01:57:20;10.20;;;9.13;;
59074;SDS011;44860;53.020;6.738;2023-06-26T01:59:47;10.45;;;9.25;;
59074;SDS011;44860;53.020;6.738;2023-06-26T02:02:14;10.73;;;9.55;;
59074;SDS011;44860;53.020;6.738;2023-06-26T02:04:40;12.45;;;10.23;;
59074;SDS011;44860;53.020;6.738;2023-06-26T02:07:06;10.55;;;9.45;;
59074;SDS011;44860;53.020;6.738;2023-06-26T02:09:34;10.52;;;9.52;;
59074;SDS011;44860;53.020;6.738;2023-06-26T02:12:00;11.02;;;9.93;;
59074;SDS011;44860;53.020;6.738;2023-06-26T02:14:26;11.23;;;10.18;;
59074;SDS011;44860;53.020;6.738;2023-06-26T02:16:51;10.23;;;9.23;;
59074;SDS011;44860;53.020;6.738;2023-06-26T02:19:17;11.45;;;10.35;;
59074;SDS011;44860;53.020;6.738;2023-06-26T02:21:49;11.23;;;10.20;;
59074;SDS011;44860;53.020;6.738;2023-06-26T02:24:15;11.07;;;10.07;;
59074;SDS011;44860;53.020;6.738;2023-06-26T02:26:41;11.27;;;10.18;;
59074;SDS011;44860;53.020;6.738;2023-06-26T02:29:06;11.35;;;10.25;;
59074;SDS011;44860;53.020;6.738;2023-06-26T02:31:32;13.27;;;11.07;;
59074;SDS011;44860;53.020;6.738;2023-06-26T02:33:58;11.32;;;10.23;;
59074;SDS011;44860;53.020;6.738;2023-06-26T02:36:23;10.70;;;9.70;;
59074;SDS011;44860;53.020;6.738;2023-06-26T02:38:49;10.88;;;9.88;;
59074;SDS011;44860;53.020;6.738;2023-06-26T02:41:15;11.55;;;9.95;;
59074;SDS011;44860;53.020;6.738;2023-06-26T02:43:41;10.40;;;8.88;;
59074;SDS011;44860;53.020;6.738;2023-06-26T02:46:06;10.52;;;9.52;;
59074;SDS011;44860;53.020;6.738;2023-06-26T02:48:32;10.50;;;9.40;;
59074;SDS011;44860;53.020;6.738;2023-06-26T02:50:58;11.77;;;9.63;;
59074;SDS011;44860;53.020;6.738;2023-06-26T02:53:24;10.60;;;9.50;;
59074;SDS011;44860;53.020;6.738;2023-06-26T02:55:49;10.85;;;9.75;;
59074;SDS011;44860;53.020;6.738;2023-06-26T02:58:15;10.48;;;9.48;;
59074;SDS011;44860;53.020;6.738;2023-06-26T03:00:41;10.80;;;9.80;;
59074;SDS011;44860;53.020;6.738;2023-06-26T03:03:08;10.60;;;9.57;;
59074;SDS011;44860;53.020;6.738;2023-06-26T03:05:34;10.77;;;9.77;;
59074;SDS011;44860;53.020;6.738;2023-06-26T03:08:00;11.77;;;10.57;;
59074;SDS011;44860;53.020;6.738;2023-06-26T03:10:25;12.95;;;10.55;;
59074;SDS011;44860;53.020;6.738;2023-06-26T03:12:51;12.15;;;10.52;;
59074;SDS011;44860;53.020;6.738;2023-06-26T03:15:17;13.73;;;10.20;;
59074;SDS011;44860;53.020;6.738;2023-06-26T03:17:44;11.85;;;10.60;;
59074;SDS011;44860;53.020;6.738;2023-06-26T03:20:10;11.52;;;10.32;;
59074;SDS011;44860;53.020;6.738;2023-06-26T03:22:36;11.25;;;10.15;;
59074;SDS011;44860;53.020;6.738;2023-06-26T03:25:02;12.77;;;10.45;;
59074;SDS011;44860;53.020;6.738;2023-06-26T03:27:28;11.57;;;10.48;;
59074;SDS011;44860;53.020;6.738;2023-06-26T03:29:54;12.30;;;10.95;;
59074;SDS011;44860;53.020;6.738;2023-06-26T03:32:19;11.55;;;10.20;;
59074;SDS011;44860;53.020;6.738;2023-06-26T03:34:45;12.43;;;11.10;;
59074;SDS011;44860;53.020;6.738;2023-06-26T03:37:11;12.70;;;11.40;;
59074;SDS011;44860;53.020;6.738;2023-06-26T03:39:37;12.40;;;11.20;;
59074;SDS011;44860;53.020;6.738;2023-06-26T03:42:02;12.30;;;11.20;;
59074;SDS011;44860;53.020;6.738;2023-06-26T03:44:28;13.05;;;11.75;;
59074;SDS011;44860;53.020;6.738;2023-06-26T03:46:54;12.88;;;11.55;;
59074;SDS011;44860;53.020;6.738;2023-06-26T03:49:20;12.48;;;11.30;;
59074;SDS011;44860;53.020;6.738;2023-06-26T03:51:45;12.63;;;11.05;;
59074;SDS011;44860;53.020;6.738;2023-06-26T03:54:12;12.93;;;11.63;;
59074;SDS011;44860;53.020;6.738;2023-06-26T03:56:38;13.98;;;11.77;;
59074;SDS011;44860;53.020;6.738;2023-06-26T03:59:03;13.68;;;12.15;;
59074;SDS011;44860;53.020;6.738;2023-06-26T04:01:29;13.05;;;11.75;;
59074;SDS011;44860;53.020;6.738;2023-06-26T04:03:55;13.52;;;12.18;;
59074;SDS011;44860;53.020;6.738;2023-06-26T04:06:20;13.30;;;11.98;;
59074;SDS011;44860;53.020;6.738;2023-06-26T04:08:46;13.05;;;11.77;;
59074;SDS011;44860;53.020;6.738;2023-06-26T04:11:13;13.02;;;11.45;;
59074;SDS011;44860;53.020;6.738;2023-06-26T04:13:38;13.25;;;11.23;;
59074;SDS011;44860;53.020;6.738;2023-06-26T04:16:04;13.27;;;11.10;;
59074;SDS011;44860;53.020;6.738;2023-06-26T04:18:31;12.07;;;10.73;;
59074;SDS011;44860;53.020;6.738;2023-06-26T04:21:04;11.25;;;10.15;;
59074;SDS011;44860;53.020;6.738;2023-06-26T04:23:34;14.27;;;10.98;;
59074;SDS011;44860;53.020;6.738;2023-06-26T04:26:00;13.52;;;10.85;;
59074;SDS011;44860;53.020;6.738;2023-06-26T04:28:27;12.18;;;10.45;;
59074;SDS011;44860;53.020;6.738;2023-06-26T04:30:53;14.18;;;10.48;;
59074;SDS011;44860;53.020;6.738;2023-06-26T04:33:19;13.20;;;9.85;;
59074;SDS011;44860;53.020;6.738;2023-06-26T04:35:45;11.82;;;9.77;;
59074;SDS011;44860;53.020;6.738;2023-06-26T04:38:14;11.60;;;9.77;;
59074;SDS011;44860;53.020;6.738;2023-06-26T04:40:40;12.77;;;9.73;;
59074;SDS011;44860;53.020;6.738;2023-06-26T04:43:06;11.68;;;9.80;;
59074;SDS011;44860;53.020;6.738;2023-06-26T04:45:32;11.98;;;10.02;;
59074;SDS011;44860;53.020;6.738;2023-06-26T04:47:57;12.00;;;9.55;;
59074;SDS011;44860;53.020;6.738;2023-06-26T04:50:24;12.00;;;9.30;;
59074;SDS011;44860;53.020;6.738;2023-06-26T04:52:51;10.18;;;9.18;;
59074;SDS011;44860;53.020;6.738;2023-06-26T04:55:16;11.27;;;9.18;;
59074;SDS011;44860;53.020;6.738;2023-06-26T04:57:42;11.57;;;9.23;;
59074;SDS011;44860;53.020;6.738;2023-06-26T05:00:08;11.82;;;8.68;;
59074;SDS011;44860;53.020;6.738;2023-06-26T05:02:36;12.23;;;8.48;;
59074;SDS011;44860;53.020;6.738;2023-06-26T05:05:01;10.82;;;7.70;;
59074;SDS011;44860;53.020;6.738;2023-06-26T05:07:27;11.65;;;7.80;;
59074;SDS011;44860;53.020;6.738;2023-06-26T05:09:53;11.95;;;8.30;;
59074;SDS011;44860;53.020;6.738;2023-06-26T05:12:19;10.35;;;7.85;;
59074;SDS011;44860;53.020;6.738;2023-06-26T05:14:44;12.55;;;8.00;;
59074;SDS011;44860;53.020;6.738;2023-06-26T05:17:11;12.48;;;8.90;;
59074;SDS011;44860;53.020;6.738;2023-06-26T05:19:38;11.60;;;8.23;;
59074;SDS011;44860;53.020;6.738;2023-06-26T05:22:04;11.77;;;7.95;;
59074;SDS011;44860;53.020;6.738;2023-06-26T05:24:36;14.07;;;8.07;;
59074;SDS011;44860;53.020;6.738;2023-06-26T05:27:03;12.73;;;8.13;;
59074;SDS011;44860;53.020;6.738;2023-06-26T05:29:30;13.20;;;8.18;;
59074;SDS011;44860;53.020;6.738;2023-06-26T05:31:56;16.08;;;9.05;;
59074;SDS011;44860;53.020;6.738;2023-06-26T05:34:22;12.73;;;8.80;;
59074;SDS011;44860;53.020;6.738;2023-06-26T05:36:52;15.73;;;9.65;;
59074;SDS011;44860;53.020;6.738;2023-06-26T05:39:22;14.98;;;8.95;;
59074;SDS011;44860;53.020;6.738;2023-06-26T05:41:48;15.70;;;8.52;;
59074;SDS011;44860;53.020;6.738;2023-06-26T05:44:14;15.70;;;8.75;;
59074;SDS011;44860;53.020;6.738;2023-06-26T05:46:40;16.33;;;9.30;;
59074;SDS011;44860;53.020;6.738;2023-06-26T05:49:05;13.55;;;8.02;;
59074;SDS011;44860;53.020;6.738;2023-06-26T05:51:31;15.90;;;8.65;;
59074;SDS011;44860;53.020;6.738;2023-06-26T05:53:57;18.15;;;9.30;;
59074;SDS011;44860;53.020;6.738;2023-06-26T05:56:23;18.75;;;9.07;;
59074;SDS011;44860;53.020;6.738;2023-06-26T05:58:49;14.77;;;8.82;;
59074;SDS011;44860;53.020;6.738;2023-06-26T06:01:16;16.05;;;8.90;;
59074;SDS011;44860;53.020;6.738;2023-06-26T06:03:42;14.23;;;8.98;;
59074;SDS011;44860;53.020;6.738;2023-06-26T06:06:08;15.52;;;8.77;;
59074;SDS011;44860;53.020;6.738;2023-06-26T06:08:33;15.95;;;8.18;;
59074;SDS011;44860;53.020;6.738;2023-06-26T06:10:59;14.73;;;8.15;;
59074;SDS011;44860;53.020;6.738;2023-06-26T06:13:25;16.52;;;8.13;;
59074;SDS011;44860;53.020;6.738;2023-06-26T06:15:51;14.40;;;8.18;;
59074;SDS011;44860;53.020;6.738;2023-06-26T06:18:17;14.80;;;7.47;;
59074;SDS011;44860;53.020;6.738;2023-06-26T06:20:42;14.40;;;7.78;;
59074;SDS011;44860;53.020;6.738;2023-06-26T06:23:08;14.38;;;7.40;;
59074;SDS011;44860;53.020;6.738;2023-06-26T06:25:34;14.00;;;7.28;;
59074;SDS011;44860;53.020;6.738;2023-06-26T06:27:59;14.80;;;6.88;;
59074;SDS011;44860;53.020;6.738;2023-06-26T06:30:25;11.20;;;5.47;;
59074;SDS011;44860;53.020;6.738;2023-06-26T06:32:52;14.82;;;5.15;;
59074;SDS011;44860;53.020;6.738;2023-06-26T06:35:18;11.90;;;4.72;;
59074;SDS011;44860;53.020;6.738;2023-06-26T06:37:44;13.50;;;4.93;;
59074;SDS011;44860;53.020;6.738;2023-06-26T06:40:10;10.57;;;4.38;;
59074;SDS011;44860;53.020;6.738;2023-06-26T06:42:36;10.75;;;4.28;;
59074;SDS011;44860;53.020;6.738;2023-06-26T06:45:02;11.63;;;4.13;;
59074;SDS011;44860;53.020;6.738;2023-06-26T06:47:29;11.07;;;4.30;;
59074;SDS011;44860;53.020;6.738;2023-06-26T06:49:55;10.63;;;3.67;;
59074;SDS011;44860;53.020;6.738;2023-06-26T06:52:21;8.30;;;3.78;;
59074;SDS011;44860;53.020;6.738;2023-06-26T06:54:53;11.68;;;4.40;;
59074;SDS011;44860;53.020;6.738;2023-06-26T06:57:24;10.32;;;3.83;;
59074;SDS011;44860;53.020;6.738;2023-06-26T06:59:50;10.63;;;4.13;;
59074;SDS011;44860;53.020;6.738;2023-06-26T07:02:16;8.38;;;3.72;;
59074;SDS011;44860;53.020;6.738;2023-06-26T07:04:42;10.52;;;3.65;;
59074;SDS011;44860;53.020;6.738;2023-06-26T07:07:08;8.02;;;3.22;;
59074;SDS011;44860;53.020;6.738;2023-06-26T07:09:34;9.05;;;3.05;;
59074;SDS011;44860;53.020;6.738;2023-06-26T07:12:01;7.50;;;2.80;;
59074;SDS011;44860;53.020;6.738;2023-06-26T07:14:27;7.85;;;3.20;;
59074;SDS011;44860;53.020;6.738;2023-06-26T07:16:53;8.65;;;3.30;;
59074;SDS011;44860;53.020;6.738;2023-06-26T07:19:19;8.93;;;2.95;;
59074;SDS011;44860;53.020;6.738;2023-06-26T07:21:44;7.82;;;2.78;;
59074;SDS011;44860;53.020;6.738;2023-06-26T07:24:11;9.93;;;2.60;;
59074;SDS011;44860;53.020;6.738;2023-06-26T07:26:37;8.38;;;2.50;;
59074;SDS011;44860;53.020;6.738;2023-06-26T07:29:03;7.15;;;2.33;;
59074;SDS011;44860;53.020;6.738;2023-06-26T07:31:29;9.15;;;2.33;;
59074;SDS011;44860;53.020;6.738;2023-06-26T07:33:54;8.63;;;2.80;;
59074;SDS011;44860;53.020;6.738;2023-06-26T07:36:20;7.20;;;2.17;;
59074;SDS011;44860;53.020;6.738;2023-06-26T07:38:46;8.77;;;2.80;;
59074;SDS011;44860;53.020;6.738;2023-06-26T07:41:11;6.13;;;2.35;;
59074;SDS011;44860;53.020;6.738;2023-06-26T07:43:37;8.68;;;2.70;;
59074;SDS011;44860;53.020;6.738;2023-06-26T07:46:02;8.70;;;2.70;;
59074;SDS011;44860;53.020;6.738;2023-06-26T07:48:28;11.27;;;2.92;;
59074;SDS011;44860;53.020;6.738;2023-06-26T07:50:54;7.95;;;2.63;;
59074;SDS011;44860;53.020;6.738;2023-06-26T07:53:19;10.25;;;2.70;;
59074;SDS011;44860;53.020;6.738;2023-06-26T07:55:45;8.70;;;2.83;;
59074;SDS011;44860;53.020;6.738;2023-06-26T07:58:11;8.32;;;2.83;;
59074;SDS011;44860;53.020;6.738;2023-06-26T08:00:37;6.75;;;2.38;;
59074;SDS011;44860;53.020;6.738;2023-06-26T08:03:03;5.88;;;2.63;;
59074;SDS011;44860;53.020;6.738;2023-06-26T08:05:29;8.43;;;2.70;;
59074;SDS011;44860;53.020;6.738;2023-06-26T08:07:54;5.60;;;2.70;;
59074;SDS011;44860;53.020;6.738;2023-06-26T08:10:20;6.82;;;2.35;;
59074;SDS011;44860;53.020;6.738;2023-06-26T08:12:46;9.07;;;2.50;;
59074;SDS011;44860;53.020;6.738;2023-06-26T08:15:13;7.05;;;2.15;;
59074;SDS011;44860;53.020;6.738;2023-06-26T08:17:39;6.95;;;2.30;;
59074;SDS011;44860;53.020;6.738;2023-06-26T08:20:05;4.05;;;2.03;;
59074;SDS011;44860;53.020;6.738;2023-06-26T08:22:33;6.05;;;2.15;;
59074;SDS011;44860;53.020;6.738;2023-06-26T08:24:59;7.10;;;2.00;;
59074;SDS011;44860;53.020;6.738;2023-06-26T08:27:24;10.30;;;2.78;;
59074;SDS011;44860;53.020;6.738;2023-06-26T08:29:50;7.38;;;2.00;;
59074;SDS011;44860;53.020;6.738;2023-06-26T08:32:16;6.47;;;2.53;;
59074;SDS011;44860;53.020;6.738;2023-06-26T08:34:45;7.43;;;2.13;;
59074;SDS011;44860;53.020;6.738;2023-06-26T08:37:11;5.05;;;2.20;;
59074;SDS011;44860;53.020;6.738;2023-06-26T08:39:36;8.65;;;1.83;;
59074;SDS011;44860;53.020;6.738;2023-06-26T08:42:02;5.75;;;2.05;;
59074;SDS011;44860;53.020;6.738;2023-06-26T08:44:28;5.00;;;1.77;;
59074;SDS011;44860;53.020;6.738;2023-06-26T08:46:54;5.28;;;2.00;;
59074;SDS011;44860;53.020;6.738;2023-06-26T08:51:59;6.57;;;2.10;;
59074;SDS011;44860;53.020;6.738;2023-06-26T08:54:54;5.07;;;2.03;;
59074;SDS011;44860;53.020;6.738;2023-06-26T08:57:23;4.63;;;2.20;;
59074;SDS011;44860;53.020;6.738;2023-06-26T08:59:50;6.57;;;2.00;;
59074;SDS011;44860;53.020;6.738;2023-06-26T09:02:16;5.70;;;1.70;;
59074;SDS011;44860;53.020;6.738;2023-06-26T09:04:42;6.53;;;2.40;;
59074;SDS011;44860;53.020;6.738;2023-06-26T09:07:08;3.97;;;2.00;;
59074;SDS011;44860;53.020;6.738;2023-06-26T09:09:35;6.97;;;2.00;;
59074;SDS011;44860;53.020;6.738;2023-06-26T09:12:01;5.65;;;2.03;;
59074;SDS011;44860;53.020;6.738;2023-06-26T09:14:28;4.38;;;2.22;;
59074;SDS011;44860;53.020;6.738;2023-06-26T09:16:54;4.80;;;2.05;;
59074;SDS011;44860;53.020;6.738;2023-06-26T09:19:20;6.47;;;2.25;;
59074;SDS011;44860;53.020;6.738;2023-06-26T09:21:46;5.18;;;2.45;;
59074;SDS011;44860;53.020;6.738;2023-06-26T09:24:16;5.15;;;2.22;;
59074;SDS011;44860;53.020;6.738;2023-06-26T09:26:42;6.32;;;2.40;;
59074;SDS011;44860;53.020;6.738;2023-06-26T09:29:09;5.70;;;2.17;;
59074;SDS011;44860;53.020;6.738;2023-06-26T09:31:36;4.90;;;2.38;;
59074;SDS011;44860;53.020;6.738;2023-06-26T09:34:03;7.40;;;2.90;;
59074;SDS011;44860;53.020;6.738;2023-06-26T09:36:29;7.15;;;2.60;;
59074;SDS011;44860;53.020;6.738;2023-06-26T09:39:01;4.82;;;2.50;;
59074;SDS011;44860;53.020;6.738;2023-06-26T09:41:29;6.35;;;2.30;;
59074;SDS011;44860;53.020;6.738;2023-06-26T09:43:57;4.38;;;2.20;;
59074;SDS011;44860;53.020;6.738;2023-06-26T09:46:28;5.15;;;2.50;;
59074;SDS011;44860;53.020;6.738;2023-06-26T09:49:01;5.15;;;2.40;;
59074;SDS011;44860;53.020;6.738;2023-06-26T09:51:32;5.82;;;2.40;;
59074;SDS011;44860;53.020;6.738;2023-06-26T09:53:58;4.70;;;2.30;;
59074;SDS011;44860;53.020;6.738;2023-06-26T09:56:26;7.90;;;2.70;;
59074;SDS011;44860;53.020;6.738;2023-06-26T09:58:57;7.13;;;2.47;;
59074;SDS011;44860;53.020;6.738;2023-06-26T10:01:24;5.20;;;2.65;;
59074;SDS011;44860;53.020;6.738;2023-06-26T10:03:50;6.50;;;2.38;;
59074;SDS011;44860;53.020;6.738;2023-06-26T10:06:22;6.78;;;2.50;;
59074;SDS011;44860;53.020;6.738;2023-06-26T10:09:01;5.13;;;2.50;;
59074;SDS011;44860;53.020;6.738;2023-06-26T10:11:36;6.22;;;2.60;;
59074;SDS011;44860;53.020;6.738;2023-06-26T10:14:07;6.72;;;2.75;;
59074;SDS011;44860;53.020;6.738;2023-06-26T10:16:34;7.85;;;3.08;;
59074;SDS011;44860;53.020;6.738;2023-06-26T10:19:03;5.05;;;2.20;;
59074;SDS011;44860;53.020;6.738;2023-06-26T10:21:32;3.72;;;2.17;;
59074;SDS011;44860;53.020;6.738;2023-06-26T10:23:59;5.45;;;2.40;;
59074;SDS011;44860;53.020;6.738;2023-06-26T10:26:28;7.28;;;2.70;;
59074;SDS011;44860;53.020;6.738;2023-06-26T10:28:55;5.97;;;2.70;;
59074;SDS011;44860;53.020;6.738;2023-06-26T10:31:23;8.23;;;2.60;;
59074;SDS011;44860;53.020;6.738;2023-06-26T10:33:51;7.85;;;2.75;;
59074;SDS011;44860;53.020;6.738;2023-06-26T10:36:18;5.18;;;2.50;;
59074;SDS011;44860;53.020;6.738;2023-06-26T10:41:19;5.00;;;2.40;;
59074;SDS011;44860;53.020;6.738;2023-06-26T10:43:48;6.53;;;2.67;;
59074;SDS011;44860;53.020;6.738;2023-06-26T10:46:23;6.55;;;2.70;;
59074;SDS011;44860;53.020;6.738;2023-06-26T10:48:56;5.63;;;2.40;;
59074;SDS011;44860;53.020;6.738;2023-06-26T10:51:24;4.95;;;2.58;;
59074;SDS011;44860;53.020;6.738;2023-06-26T10:53:53;5.40;;;2.60;;
59074;SDS011;44860;53.020;6.738;2023-06-26T10:57:05;6.60;;;2.80;;
59074;SDS011;44860;53.020;6.738;2023-06-26T10:59:18;8.07;;;2.70;;
59074;SDS011;44860;53.020;6.738;2023-06-26T11:02:06;5.55;;;2.17;;
59074;SDS011;44860;53.020;6.738;2023-06-26T11:07:24;5.57;;;2.40;;
59074;SDS011;44860;53.020;6.738;2023-06-26T11:10:07;5.22;;;2.03;;
59074;SDS011;44860;53.020;6.738;2023-06-26T11:12:44;7.18;;;2.30;;
59074;SDS011;44860;53.020;6.738;2023-06-26T11:15:16;7.32;;;2.45;;
59074;SDS011;44860;53.020;6.738;2023-06-26T11:17:43;6.78;;;2.40;;
59074;SDS011;44860;53.020;6.738;2023-06-26T11:20:10;8.73;;;2.80;;
59074;SDS011;44860;53.020;6.738;2023-06-26T11:22:39;8.55;;;2.75;;
59074;SDS011;44860;53.020;6.738;2023-06-26T11:25:06;6.18;;;2.50;;
59074;SDS011;44860;53.020;6.738;2023-06-26T11:27:42;6.00;;;2.55;;
59074;SDS011;44860;53.020;6.738;2023-06-26T11:30:09;6.55;;;2.65;;
59074;SDS011;44860;53.020;6.738;2023-06-26T11:32:37;7.28;;;2.30;;
59074;SDS011;44860;53.020;6.738;2023-06-26T11:35:03;5.70;;;2.40;;
59074;SDS011;44860;53.020;6.738;2023-06-26T11:37:33;5.50;;;2.65;;
59074;SDS011;44860;53.020;6.738;2023-06-26T11:39:59;7.22;;;2.92;;
59074;SDS011;44860;53.020;6.738;2023-06-26T11:42:25;6.63;;;2.20;;
59074;SDS011;44860;53.020;6.738;2023-06-26T11:44:50;8.43;;;2.15;;
59074;SDS011;44860;53.020;6.738;2023-06-26T11:47:18;7.43;;;2.28;;
59074;SDS011;44860;53.020;6.738;2023-06-26T11:49:45;11.07;;;2.33;;
59074;SDS011;44860;53.020;6.738;2023-06-26T11:52:12;6.82;;;2.30;;
59074;SDS011;44860;53.020;6.738;2023-06-26T11:54:39;5.38;;;2.17;;
59074;SDS011;44860;53.020;6.738;2023-06-26T11:57:05;4.38;;;2.05;;
59074;SDS011;44860;53.020;6.738;2023-06-26T11:59:33;5.63;;;2.10;;
59074;SDS011;44860;53.020;6.738;2023-06-26T12:02:09;3.33;;;1.90;;
59074;SDS011;44860;53.020;6.738;2023-06-26T12:04:38;8.05;;;2.10;;
59074;SDS011;44860;53.020;6.738;2023-06-26T12:07:06;7.97;;;1.65;;
59074;SDS011;44860;53.020;6.738;2023-06-26T12:09:40;4.50;;;1.90;;
59074;SDS011;44860;53.020;6.738;2023-06-26T12:12:09;4.40;;;1.67;;
59074;SDS011;44860;53.020;6.738;2023-06-26T12:14:36;7.65;;;1.58;;
59074;SDS011;44860;53.020;6.738;2023-06-26T12:17:08;5.75;;;1.65;;
59074;SDS011;44860;53.020;6.738;2023-06-26T12:19:38;5.43;;;1.63;;
59074;SDS011;44860;53.020;6.738;2023-06-26T12:22:07;5.60;;;1.65;;
59074;SDS011;44860;53.020;6.738;2023-06-26T12:24:35;8.20;;;1.73;;
59074;SDS011;44860;53.020;6.738;2023-06-26T12:27:06;5.32;;;1.63;;
59074;SDS011;44860;53.020;6.738;2023-06-26T12:29:33;4.38;;;1.60;;
59074;SDS011;44860;53.020;6.738;2023-06-26T12:31:59;6.00;;;1.80;;
59074;SDS011;44860;53.020;6.738;2023-06-26T12:34:31;3.33;;;1.40;;
59074;SDS011;44860;53.020;6.738;2023-06-26T12:37:01;5.38;;;1.58;;
59074;SDS011;44860;53.020;6.738;2023-06-26T12:39:28;5.40;;;1.55;;
59074;SDS011;44860;53.020;6.738;2023-06-26T12:44:25;4.50;;;1.60;;
59074;SDS011;44860;53.020;6.738;2023-06-26T12:49:31;4.63;;;1.40;;
59074;SDS011;44860;53.020;6.738;2023-06-26T12:52:01;4.65;;;1.60;;
59074;SDS011;44860;53.020;6.738;2023-06-26T12:54:29;8.05;;;1.65;;
59074;SDS011;44860;53.020;6.738;2023-06-26T12:56:55;4.40;;;1.50;;
59074;SDS011;44860;53.020;6.738;2023-06-26T12:59:21;7.28;;;1.60;;
59074;SDS011;44860;53.020;6.738;2023-06-26T13:01:47;7.78;;;2.00;;
59074;SDS011;44860;53.020;6.738;2023-06-26T13:04:13;9.13;;;1.70;;
59074;SDS011;44860;53.020;6.738;2023-06-26T13:06:39;7.82;;;2.08;;
59074;SDS011;44860;53.020;6.738;2023-06-26T13:09:04;11.60;;;2.10;;
59074;SDS011;44860;53.020;6.738;2023-06-26T13:11:31;8.02;;;2.00;;
59074;SDS011;44860;53.020;6.738;2023-06-26T13:13:57;4.65;;;1.80;;
59074;SDS011;44860;53.020;6.738;2023-06-26T13:16:23;5.63;;;2.00;;
59074;SDS011;44860;53.020;6.738;2023-06-26T13:18:49;5.57;;;1.83;;
59074;SDS011;44860;53.020;6.738;2023-06-26T13:21:16;5.47;;;1.70;;
59074;SDS011;44860;53.020;6.738;2023-06-26T13:23:43;8.10;;;1.85;;
59074;SDS011;44860;53.020;6.738;2023-06-26T13:26:09;7.03;;;1.70;;
59074;SDS011;44860;53.020;6.738;2023-06-26T13:28:35;6.32;;;1.98;;
59074;SDS011;44860;53.020;6.738;2023-06-26T13:31:02;6.93;;;1.90;;
59074;SDS011;44860;53.020;6.738;2023-06-26T13:33:28;6.03;;;1.70;;
59074;SDS011;44860;53.020;6.738;2023-06-26T13:35:54;6.57;;;2.10;;
59074;SDS011;44860;53.020;6.738;2023-06-26T13:38:20;11.80;;;2.08;;
59074;SDS011;44860;53.020;6.738;2023-06-26T13:40:58;6.45;;;1.67;;
59074;SDS011;44860;53.020;6.738;2023-06-26T13:43:25;5.88;;;1.60;;
59074;SDS011;44860;53.020;6.738;2023-06-26T13:45:52;4.75;;;1.75;;
59074;SDS011;44860;53.020;6.738;2023-06-26T13:48:18;4.45;;;1.50;;
59074;SDS011;44860;53.020;6.738;2023-06-26T13:50:44;7.78;;;1.70;;
59074;SDS011;44860;53.020;6.738;2023-06-26T13:53:11;7.43;;;2.00;;
59074;SDS011;44860;53.020;6.738;2023-06-26T13:55:36;7.15;;;1.80;;
59074;SDS011;44860;53.020;6.738;2023-06-26T13:58:03;6.25;;;1.55;;
59074;SDS011;44860;53.020;6.738;2023-06-26T14:00:30;7.15;;;1.65;;
59074;SDS011;44860;53.020;6.738;2023-06-26T14:02:56;5.90;;;1.85;;
59074;SDS011;44860;53.020;6.738;2023-06-26T14:05:22;4.65;;;1.70;;
59074;SDS011;44860;53.020;6.738;2023-06-26T14:07:48;6.43;;;1.95;;
59074;SDS011;44860;53.020;6.738;2023-06-26T14:10:14;7.78;;;1.90;;
59074;SDS011;44860;53.020;6.738;2023-06-26T14:12:40;7.03;;;1.83;;
59074;SDS011;44860;53.020;6.738;2023-06-26T14:15:06;5.30;;;1.73;;
59074;SDS011;44860;53.020;6.738;2023-06-26T14:17:32;6.88;;;1.77;;
59074;SDS011;44860;53.020;6.738;2023-06-26T14:19:57;5.47;;;1.60;;
59074;SDS011;44860;53.020;6.738;2023-06-26T14:22:24;4.60;;;1.52;;
59074;SDS011;44860;53.020;6.738;2023-06-26T14:24:50;8.38;;;1.77;;
59074;SDS011;44860;53.020;6.738;2023-06-26T14:27:15;5.57;;;2.10;;
59074;SDS011;44860;53.020;6.738;2023-06-26T14:29:41;6.25;;;1.42;;
59074;SDS011;44860;53.020;6.738;2023-06-26T14:32:07;5.22;;;1.80;;
59074;SDS011;44860;53.020;6.738;2023-06-26T14:34:33;5.50;;;1.80;;
59074;SDS011;44860;53.020;6.738;2023-06-26T14:36:58;5.38;;;1.80;;
59074;SDS011;44860;53.020;6.738;2023-06-26T14:39:24;5.57;;;1.67;;
59074;SDS011;44860;53.020;6.738;2023-06-26T14:41:50;6.60;;;2.10;;
59074;SDS011;44860;53.020;6.738;2023-06-26T14:44:16;9.05;;;1.90;;
59074;SDS011;44860;53.020;6.738;2023-06-26T14:46:41;7.00;;;1.88;;
59074;SDS011;44860;53.020;6.738;2023-06-26T14:49:08;7.18;;;1.40;;
59074;SDS011;44860;53.020;6.738;2023-06-26T14:51:34;8.95;;;1.92;;
59074;SDS011;44860;53.020;6.738;2023-06-26T14:54:00;5.57;;;1.70;;
59074;SDS011;44860;53.020;6.738;2023-06-26T14:56:26;6.63;;;1.73;;
59074;SDS011;44860;53.020;6.738;2023-06-26T14:58:51;4.25;;;1.50;;
59074;SDS011;44860;53.020;6.738;2023-06-26T15:01:18;4.53;;;1.67;;
59074;SDS011;44860;53.020;6.738;2023-06-26T15:03:47;4.40;;;1.65;;